Time;durP1;ratioP1;P1;durP2;ratioP2;P2;SDS_P1;SDS_P2;PMS_P1;PMS_P2;Temp;Humidity;BMP_temperature;BMP_pressure;BME280_temperature;BME280_humidity;BME280_pressure;Samples;Min_cycle;Max_cycle;Signal;HPM_P1;HPM_P2
2024/03/27 00:02:15;;;;;;;0.83;0.80;;;;;;;;;;6276220;28;20473;-76
2024/03/27 00:05:15;;;;;;;1.08;0.82;;;;;;;;;;6275545;28;20052;-76
2024/03/27 00:08:16;;;;;;;0.90;0.60;;;;;;;;;;6275565;28;20521;-76
2024/03/27 00:11:18;;;;;;;2.00;0.70;;;;;;;;;;6272022;28;20395;-76
2024/03/27 00:14:18;;;;;;;0.85;0.70;;;;;;;;;;6276704;28;20021;-76
2024/03/27 00:17:19;;;;;;;0.57;0.57;;;;;;;;;;6274025;28;20041;-76
2024/03/27 00:20:19;;;;;;;1.70;0.90;;;;;;;;;;6286739;28;20101;-76
2024/03/27 00:23:19;;;;;;;1.53;0.80;;;;;;;;;;6293094;28;20048;-76
2024/03/27 00:26:19;;;;;;;0.80;0.60;;;;;;;;;;6275642;28;20023;-73
2024/03/27 00:29:20;;;;;;;1.03;0.67;;;;;;;;;;6273434;28;20036;-74
2024/03/27 00:32:20;;;;;;;0.90;0.70;;;;;;;;;;6273964;28;20488;-73
2024/03/27 00:35:21;;;;;;;2.53;0.70;;;;;;;;;;6274682;28;20539;-75
2024/03/27 00:38:21;;;;;;;;;;;;;;;;;;6273225;28;20075;-74
2024/03/27 00:41:22;;;;;;;0.50;0.32;;;;;;;;;;6275255;28;19909;-73
2024/03/27 00:44:22;;;;;;;0.90;0.60;;;;;;;;;;6273395;28;20441;-73
2024/03/27 00:47:22;;;;;;;0.67;0.60;;;;;;;;;;6273045;28;20028;-74
2024/03/27 00:50:23;;;;;;;1.17;0.63;;;;;;;;;;6274492;28;20462;-73
2024/03/27 00:53:23;;;;;;;0.87;0.60;;;;;;;;;;6273442;28;20504;-73
2024/03/27 00:56:24;;;;;;;0.73;0.70;;;;;;;;;;6273160;28;20033;-74
2024/03/27 00:59:25;;;;;;;1.20;0.70;;;;;;;;;;6273994;28;20049;-73
2024/03/27 01:02:25;;;;;;;0.80;0.65;;;;;;;;;;6270774;28;20087;-73
2024/03/27 01:05:27;;;;;;;1.07;0.70;;;;;;;;;;6272956;28;20064;-74
2024/03/27 01:08:28;;;;;;;0.82;0.63;;;;;;;;;;6259023;28;20032;-73
2024/03/27 01:11:28;;;;;;;1.63;0.70;;;;;;;;;;6273557;28;20029;-73
2024/03/27 01:14:28;;;;;;;0.70;0.50;;;;;;;;;;6253722;28;20113;-73
2024/03/27 01:17:28;;;;;;;0.90;0.73;;;;;;;;;;6269425;28;20401;-73
2024/03/27 01:20:30;;;;;;;0.73;0.60;;;;;;;;;;6270669;28;20693;-73
2024/03/27 01:23:30;;;;;;;0.88;0.52;;;;;;;;;;6264565;28;20021;-74
2024/03/27 01:26:30;;;;;;;1.70;0.50;;;;;;;;;;6260905;28;20474;-73
2024/03/27 01:29:30;;;;;;;0.40;0.40;;;;;;;;;;6273876;28;20461;-73
2024/03/27 01:32:30;;;;;;;0.87;0.60;;;;;;;;;;6250228;28;20547;-72
2024/03/27 01:35:31;;;;;;;0.80;0.70;;;;;;;;;;6272080;28;20052;-73
2024/03/27 01:38:31;;;;;;;0.60;0.57;;;;;;;;;;6272815;28;20021;-73
2024/03/27 01:41:31;;;;;;;0.73;0.60;;;;;;;;;;6272162;28;20035;-74
2024/03/27 01:44:31;;;;;;;0.67;0.60;;;;;;;;;;6277943;28;20031;-73
2024/03/27 01:47:32;;;;;;;0.87;0.60;;;;;;;;;;6268127;28;20429;-73
2024/03/27 01:50:32;;;;;;;0.60;0.57;;;;;;;;;;6262968;28;20041;-73
2024/03/27 01:53:32;;;;;;;0.87;0.50;;;;;;;;;;6272495;28;20028;-73
2024/03/27 01:56:33;;;;;;;1.57;0.70;;;;;;;;;;6271271;28;20024;-73
2024/03/27 01:59:33;;;;;;;0.70;0.60;;;;;;;;;;6272650;28;20501;-73
2024/03/27 02:02:35;;;;;;;1.00;0.70;;;;;;;;;;6271555;28;20044;-74
2024/03/27 02:05:36;;;;;;;0.68;0.52;;;;;;;;;;6272608;28;20272;-73
2024/03/27 02:08:36;;;;;;;0.57;0.57;;;;;;;;;;6272148;28;20021;-73
2024/03/27 02:11:37;;;;;;;2.10;0.73;;;;;;;;;;6273110;28;20031;-73
2024/03/27 02:14:37;;;;;;;0.70;0.70;;;;;;;;;;6270331;28;20027;-73
2024/03/27 02:17:37;;;;;;;0.63;0.63;;;;;;;;;;6270936;28;20488;-73
2024/03/27 02:20:40;;;;;;;0.70;0.47;;;;;;;;;;6273209;28;20484;-73
2024/03/27 02:23:57;;;;;;;0.47;0.40;;;;;;;;;;6270874;28;20434;-73
2024/03/27 02:26:57;;;;;;;0.73;0.52;;;;;;;;;;6272754;28;20044;-74
2024/03/27 02:29:58;;;;;;;0.90;0.60;;;;;;;;;;6253319;28;20021;-73
2024/03/27 02:32:58;;;;;;;0.80;0.70;;;;;;;;;;6270114;28;20027;-73
2024/03/27 02:35:58;;;;;;;0.70;0.70;;;;;;;;;;6254626;28;20120;-73
2024/03/27 02:38:58;;;;;;;0.40;0.37;;;;;;;;;;6271622;28;20223;-73
2024/03/27 02:41:59;;;;;;;1.30;0.80;;;;;;;;;;6270953;28;20032;-73
2024/03/27 02:44:59;;;;;;;1.17;0.70;;;;;;;;;;6270386;28;20051;-74
2024/03/27 02:47:59;;;;;;;1.53;0.60;;;;;;;;;;6271378;28;20461;-75
2024/03/27 02:50:59;;;;;;;0.63;0.60;;;;;;;;;;6271155;28;20029;-75
2024/03/27 02:54:00;;;;;;;0.80;0.70;;;;;;;;;;6271411;28;20035;-75
2024/03/27 02:57:00;;;;;;;0.47;0.47;;;;;;;;;;6272152;28;20032;-75
2024/03/27 03:00:00;;;;;;;0.70;0.60;;;;;;;;;;6270526;28;20045;-76
2024/03/27 03:03:00;;;;;;;2.20;0.70;;;;;;;;;;6270649;28;20041;-76
2024/03/27 03:06:01;;;;;;;1.00;0.63;;;;;;;;;;6271497;28;20036;-76
2024/03/27 03:09:01;;;;;;;0.70;0.67;;;;;;;;;;6272138;28;20469;-75
2024/03/27 03:12:01;;;;;;;0.83;0.70;;;;;;;;;;6271873;28;20521;-75
2024/03/27 03:15:02;;;;;;;0.77;0.75;;;;;;;;;;6272282;28;20516;-75
2024/03/27 03:18:02;;;;;;;0.70;0.60;;;;;;;;;;6269471;28;20075;-75
2024/03/27 03:21:05;;;;;;;0.63;0.57;;;;;;;;;;6271988;28;20116;-75
2024/03/27 03:24:05;;;;;;;0.77;0.70;;;;;;;;;;6270505;28;20087;-76
2024/03/27 03:27:06;;;;;;;0.87;0.60;;;;;;;;;;6274378;28;20560;-76
2024/03/27 03:30:07;;;;;;;1.93;0.70;;;;;;;;;;6277054;28;20021;-76
2024/03/27 03:33:07;;;;;;;0.90;0.68;;;;;;;;;;6249083;28;20021;-76
2024/03/27 03:36:08;;;;;;;2.27;0.60;;;;;;;;;;6272308;28;20028;-75
2024/03/27 03:39:08;;;;;;;0.70;0.57;;;;;;;;;;6275302;28;20466;-75
2024/03/27 03:42:08;;;;;;;0.60;0.60;;;;;;;;;;6276099;28;20057;-76
2024/03/27 03:45:08;;;;;;;1.73;0.80;;;;;;;;;;6258562;28;20388;-75
2024/03/27 03:48:09;;;;;;;0.83;0.63;;;;;;;;;;6274571;28;20424;-76
2024/03/27 03:51:09;;;;;;;0.80;0.60;;;;;;;;;;6256451;28;20035;-75
2024/03/27 03:54:09;;;;;;;0.87;0.60;;;;;;;;;;6274379;28;20565;-75
2024/03/27 03:57:09;;;;;;;1.63;0.90;;;;;;;;;;6275719;28;20476;-73
2024/03/27 04:00:15;;;;;;;0.87;0.63;;;;;;;;;;6276054;28;20057;-73
2024/03/27 04:03:15;;;;;;;1.10;0.80;;;;;;;;;;6272482;28;20116;-73
2024/03/27 04:06:15;;;;;;;1.00;0.80;;;;;;;;;;6274029;28;20032;-73
2024/03/27 04:09:17;;;;;;;0.90;0.67;;;;;;;;;;6273862;28;20032;-74
2024/03/27 04:12:17;;;;;;;;;;;;;;;;;;6275663;28;20053;-73
2024/03/27 04:15:17;;;;;;;1.80;0.60;;;;;;;;;;6274963;28;19931;-73
2024/03/27 04:18:18;;;;;;;1.53;0.70;;;;;;;;;;6274723;28;20033;-73
2024/03/27 04:21:18;;;;;;;1.03;0.80;;;;;;;;;;6274743;28;20029;-73
2024/03/27 04:24:18;;;;;;;1.03;0.60;;;;;;;;;;6266574;28;20036;-73
2024/03/27 04:27:18;;;;;;;1.47;0.90;;;;;;;;;;6250364;28;20029;-73
2024/03/27 04:30:19;;;;;;;0.93;0.80;;;;;;;;;;6269109;28;20025;-73
2024/03/27 04:33:19;;;;;;;0.70;0.70;;;;;;;;;;6273174;28;20041;-73
2024/03/27 04:36:20;;;;;;;1.20;0.70;;;;;;;;;;6275016;28;20029;-73
2024/03/27 04:39:22;;;;;;;1.20;0.80;;;;;;;;;;6271561;28;20033;-73
2024/03/27 04:42:22;;;;;;;1.85;0.70;;;;;;;;;;6244481;28;20124;-73
2024/03/27 04:45:22;;;;;;;1.33;0.70;;;;;;;;;;6275058;28;20074;-73
2024/03/27 04:48:23;;;;;;;1.00;0.80;;;;;;;;;;6273099;28;20027;-73
2024/03/27 04:51:23;;;;;;;0.77;0.60;;;;;;;;;;6274451;28;20524;-73
2024/03/27 04:54:23;;;;;;;0.70;0.63;;;;;;;;;;6271770;28;20017;-73
2024/03/27 04:57:24;;;;;;;1.17;0.80;;;;;;;;;;6274120;28;20484;-73
2024/03/27 05:00:24;;;;;;;1.63;0.77;;;;;;;;;;6274225;28;20049;-73
2024/03/27 05:03:24;;;;;;;1.23;0.90;;;;;;;;;;6254494;28;20075;-73
2024/03/27 05:06:24;;;;;;;0.80;0.70;;;;;;;;;;6274047;28;20032;-75
2024/03/27 05:09:25;;;;;;;0.93;0.80;;;;;;;;;;6274074;28;20024;-75
2024/03/27 05:12:25;;;;;;;1.00;0.90;;;;;;;;;;6273065;28;20469;-75
2024/03/27 05:15:25;;;;;;;1.00;0.73;;;;;;;;;;6256150;28;20100;-75
2024/03/27 05:18:25;;;;;;;2.43;0.80;;;;;;;;;;6272565;28;20028;-76
2024/03/27 05:21:27;;;;;;;1.30;0.80;;;;;;;;;;6274134;28;20458;-76
2024/03/27 05:24:27;;;;;;;1.05;0.73;;;;;;;;;;6272616;28;20040;-75
2024/03/27 05:27:27;;;;;;;1.57;0.80;;;;;;;;;;6277865;28;20422;-75
2024/03/27 05:30:27;;;;;;;1.10;0.80;;;;;;;;;;6273943;28;20545;-75
2024/03/27 05:33:28;;;;;;;0.73;0.70;;;;;;;;;;6272382;28;20591;-75
2024/03/27 05:36:28;;;;;;;3.10;0.93;;;;;;;;;;6273707;28;20154;-75
2024/03/27 05:39:28;;;;;;;1.00;0.90;;;;;;;;;;6272633;28;20536;-75
2024/03/27 05:42:29;;;;;;;1.20;0.80;;;;;;;;;;6273099;28;20078;-76
2024/03/27 05:45:30;;;;;;;1.95;1.00;;;;;;;;;;6282512;28;20033;-76
2024/03/27 05:48:30;;;;;;;1.30;0.97;;;;;;;;;;6268762;28;20044;-76
2024/03/27 05:51:31;;;;;;;1.13;0.80;;;;;;;;;;6272053;28;20021;-75
2024/03/27 05:54:32;;;;;;;1.27;0.73;;;;;;;;;;6273144;28;20029;-76
2024/03/27 05:57:32;;;;;;;0.75;0.73;;;;;;;;;;6272807;28;20469;-76
2024/03/27 06:00:33;;;;;;;1.10;0.87;;;;;;;;;;6273683;28;20507;-76
2024/03/27 06:03:33;;;;;;;1.30;0.90;;;;;;;;;;6271962;28;20029;-76
2024/03/27 06:06:34;;;;;;;1.27;0.70;;;;;;;;;;6271147;28;20036;-76
2024/03/27 06:09:34;;;;;;;1.77;1.10;;;;;;;;;;6270848;28;20170;-76
2024/03/27 06:12:34;;;;;;;1.83;1.10;;;;;;;;;;6273439;28;20047;-76
2024/03/27 06:15:34;;;;;;;1.37;0.97;;;;;;;;;;6274421;28;20032;-76
2024/03/27 06:18:35;;;;;;;1.57;1.10;;;;;;;;;;6272899;28;20530;-76
2024/03/27 06:21:35;;;;;;;1.47;0.87;;;;;;;;;;6273368;28;20485;-76
2024/03/27 06:24:35;;;;;;;1.17;1.00;;;;;;;;;;6271197;28;20370;-76
2024/03/27 06:27:35;;;;;;;1.20;1.00;;;;;;;;;;6272608;28;20485;-76
2024/03/27 06:30:38;;;;;;;1.23;0.80;;;;;;;;;;6272875;28;20033;-75
2024/03/27 06:33:38;;;;;;;1.88;1.10;;;;;;;;;;6271784;28;20051;-75
2024/03/27 06:36:38;;;;;;;1.93;1.20;;;;;;;;;;6273178;28;20017;-76
2024/03/27 06:39:38;;;;;;;1.30;1.10;;;;;;;;;;6270422;28;20454;-76
2024/03/27 06:42:39;;;;;;;1.77;0.97;;;;;;;;;;6272045;28;20488;-76
2024/03/27 06:45:43;;;;;;;1.15;0.90;;;;;;;;;;6273727;28;20486;-76
2024/03/27 06:48:51;;;;;;;1.17;0.93;;;;;;;;;;6270793;28;20390;-76
2024/03/27 06:51:52;;;;;;;1.40;1.10;;;;;;;;;;6271700;28;20029;-76
2024/03/27 06:54:52;;;;;;;1.40;0.90;;;;;;;;;;6271419;28;20051;-74
2024/03/27 06:57:52;;;;;;;1.20;0.97;;;;;;;;;;6272345;28;20068;-74
2024/03/27 07:00:53;;;;;;;1.23;1.10;;;;;;;;;;6272335;28;20469;-74
2024/03/27 07:03:53;;;;;;;1.52;0.93;;;;;;;;;;6274574;28;20021;-74
2024/03/27 07:06:53;;;;;;;2.30;1.00;;;;;;;;;;6276299;28;20037;-74
2024/03/27 07:09:54;;;;;;;1.20;1.10;;;;;;;;;;6273228;28;20500;-74
2024/03/27 07:12:54;;;;;;;2.07;1.00;;;;;;;;;;6277045;28;20448;-74
2024/03/27 07:15:54;;;;;;;1.33;1.03;;;;;;;;;;6275322;28;20469;-74
2024/03/27 07:18:54;;;;;;;1.63;1.10;;;;;;;;;;6275556;28;20525;-74
2024/03/27 07:21:55;;;;;;;1.17;1.07;;;;;;;;;;6276009;28;20035;-75
2024/03/27 07:24:55;;;;;;;1.40;0.87;;;;;;;;;;6281905;28;20085;-74
2024/03/27 07:27:55;;;;;;;1.30;1.03;;;;;;;;;;6261590;28;20512;-76
2024/03/27 07:30:55;;;;;;;2.40;1.27;;;;;;;;;;6262189;28;20484;-79
2024/03/27 07:33:56;;;;;;;1.73;1.20;;;;;;;;;;6270298;28;20473;-78
2024/03/27 07:36:56;;;;;;;1.93;1.10;;;;;;;;;;6273206;28;20114;-78
2024/03/27 07:39:56;;;;;;;1.37;0.80;;;;;;;;;;6275408;28;20098;-78
2024/03/27 07:42:56;;;;;;;1.97;1.10;;;;;;;;;;6274780;28;20120;-79
2024/03/27 07:45:57;;;;;;;3.40;1.40;;;;;;;;;;6273933;28;20056;-78
2024/03/27 07:48:57;;;;;;;1.37;1.20;;;;;;;;;;6272482;28;20059;-79
2024/03/27 07:51:57;;;;;;;1.40;1.17;;;;;;;;;;6272554;28;20067;-80
2024/03/27 07:54:57;;;;;;;1.40;1.20;;;;;;;;;;6273608;28;20017;-80
2024/03/27 07:57:58;;;;;;;1.33;1.00;;;;;;;;;;6273392;28;20165;-79
2024/03/27 08:00:59;;;;;;;1.77;1.10;;;;;;;;;;6274439;28;20444;-79
2024/03/27 08:03:59;;;;;;;2.33;1.10;;;;;;;;;;6266262;28;20021;-80
2024/03/27 08:06:59;;;;;;;1.73;1.27;;;;;;;;;;6269358;28;20493;-80
2024/03/27 08:09:59;;;;;;;2.47;1.13;;;;;;;;;;6274554;28;20568;-78
2024/03/27 08:13:00;;;;;;;1.10;1.00;;;;;;;;;;6274510;28;20579;-78
2024/03/27 08:16:01;;;;;;;1.67;1.00;;;;;;;;;;6276742;28;20028;-78
2024/03/27 08:19:01;;;;;;;1.88;1.20;;;;;;;;;;6274162;28;20021;-77
2024/03/27 08:22:01;;;;;;;2.93;1.20;;;;;;;;;;6270171;28;20037;-79
2024/03/27 08:25:02;;;;;;;1.30;0.93;;;;;;;;;;6274943;28;20025;-77
2024/03/27 08:28:03;;;;;;;1.98;1.23;;;;;;;;;;6274650;28;20465;-78
2024/03/27 08:31:03;;;;;;;1.90;1.20;;;;;;;;;;6273057;28;20071;-78
2024/03/27 08:34:06;;;;;;;1.48;1.25;;;;;;;;;;6272895;28;20021;-80
2024/03/27 08:37:06;;;;;;;2.72;1.35;;;;;;;;;;6267679;28;20091;-78
2024/03/27 08:40:09;;;;;;;1.65;1.20;;;;;;;;;;6275467;28;20416;-79
2024/03/27 08:43:09;;;;;;;1.95;1.10;;;;;;;;;;6261328;28;20036;-79
2024/03/27 08:46:09;;;;;;;1.47;1.27;;;;;;;;;;6275830;28;20033;-79
2024/03/27 08:49:12;;;;;;;1.87;1.20;;;;;;;;;;6276599;28;20029;-80
2024/03/27 08:52:12;;;;;;;1.73;1.00;;;;;;;;;;6275138;28;20040;-80
2024/03/27 08:55:12;;;;;;;2.00;1.23;;;;;;;;;;6276665;28;20029;-80
2024/03/27 08:58:13;;;;;;;1.10;0.93;;;;;;;;;;6275448;28;20025;-80
2024/03/27 09:01:14;;;;;;;2.00;1.10;;;;;;;;;;6277703;28;20488;-81
2024/03/27 09:04:14;;;;;;;1.52;1.02;;;;;;;;;;6257847;28;20027;-81
2024/03/27 09:07:14;;;;;;;1.70;1.20;;;;;;;;;;6276180;28;20449;-82
2024/03/27 09:10:14;;;;;;;1.17;1.07;;;;;;;;;;6272125;28;20077;-79
2024/03/27 09:13:15;;;;;;;1.10;1.00;;;;;;;;;;6270366;28;20021;-80
2024/03/27 09:16:15;;;;;;;1.30;1.10;;;;;;;;;;6272511;28;20041;-79
2024/03/27 09:19:15;;;;;;;1.40;1.07;;;;;;;;;;6269715;28;20116;-81
2024/03/27 09:22:15;;;;;;;2.60;1.10;;;;;;;;;;6270246;28;20469;-80
2024/03/27 09:25:16;;;;;;;1.53;1.03;;;;;;;;;;6271962;28;20551;-80
2024/03/27 09:28:16;;;;;;;1.60;1.10;;;;;;;;;;6248414;28;20524;-80
2024/03/27 09:31:16;;;;;;;2.90;1.43;;;;;;;;;;6249129;28;20047;-80
2024/03/27 09:34:17;;;;;;;4.13;1.43;;;;;;;;;;6262938;28;20021;-81
2024/03/27 09:37:17;;;;;;;;;;;;;;;;;;6252711;28;20271;-80
2024/03/27 09:40:18;;;;;;;1.30;0.93;;;;;;;;;;6271007;28;19955;-80
2024/03/27 09:43:20;;;;;;;1.00;0.90;;;;;;;;;;6270757;28;20036;-80
2024/03/27 09:46:20;;;;;;;0.90;0.80;;;;;;;;;;6270244;28;20025;-80
2024/03/27 09:49:20;;;;;;;2.50;1.00;;;;;;;;;;6268040;28;20543;-81
2024/03/27 09:52:21;;;;;;;2.63;0.97;;;;;;;;;;6270024;28;20024;-81
2024/03/27 09:55:22;;;;;;;2.25;1.10;;;;;;;;;;6267763;28;20025;-81
2024/03/27 09:58:22;;;;;;;2.03;1.10;;;;;;;;;;6281515;28;20530;-81
2024/03/27 10:01:23;;;;;;;1.00;0.80;;;;;;;;;;6271998;28;20037;-80
2024/03/27 10:04:23;;;;;;;;;;;;;;;;;;6269173;28;20029;-79
2024/03/27 10:07:24;;;;;;;0.80;0.70;;;;;;;;;;6282387;28;19916;-81
2024/03/27 10:10:25;;;;;;;1.60;1.05;;;;;;;;;;6278562;28;20047;-78
2024/03/27 10:13:27;;;;;;;2.63;1.23;;;;;;;;;;6271056;28;20028;-78
2024/03/27 10:16:28;;;;;;;1.35;0.98;;;;;;;;;;6269800;28;20033;-78
2024/03/27 10:19:29;;;;;;;1.20;1.10;;;;;;;;;;6267045;28;20029;-78
2024/03/27 10:22:31;;;;;;;2.85;1.45;;;;;;;;;;6258980;28;20045;-78
2024/03/27 10:25:32;;;;;;;1.20;1.10;;;;;;;;;;6257584;28;20071;-78
2024/03/27 10:28:33;;;;;;;;;;;;;;;;;;6269464;28;20032;-79
2024/03/27 10:31:33;;;;;;;1.50;0.90;;;;;;;;;;6274440;28;19908;-77
2024/03/27 10:34:33;;;;;;;2.73;0.93;;;;;;;;;;6276361;28;20080;-79
2024/03/27 10:37:33;;;;;;;;;;;;;;;;;;6272529;28;20025;-79
2024/03/27 10:40:36;;;;;;;0.97;0.77;;;;;;;;;;6258784;28;19905;-81
2024/03/27 10:43:42;;;;;;;1.38;1.00;;;;;;;;;;6272888;28;20275;-80
2024/03/27 10:46:42;;;;;;;1.90;1.13;;;;;;;;;;6255322;28;20416;-80
2024/03/27 10:49:43;;;;;;;1.77;1.23;;;;;;;;;;6280502;28;20036;-81
2024/03/27 10:52:43;;;;;;;;;;;;;;;;;;6301884;28;20032;-80
2024/03/27 10:55:43;;;;;;;2.30;1.00;;;;;;;;;;6301527;28;19905;-79
2024/03/27 10:58:45;;;;;;;1.73;1.17;;;;;;;;;;6276173;28;20076;-80
2024/03/27 11:01:45;;;;;;;3.80;1.13;;;;;;;;;;6256160;28;20360;-80
2024/03/27 11:04:56;;;;;;;2.53;1.27;;;;;;;;;;6270769;28;20473;-80
2024/03/27 11:07:58;;;;;;;1.08;0.95;;;;;;;;;;6285328;28;20503;-80
2024/03/27 11:11:09;;;;;;;1.80;1.30;;;;;;;;;;6273384;28;20037;-81
2024/03/27 11:14:10;;;;;;;1.83;1.10;;;;;;;;;;6273026;28;20111;-80
2024/03/27 11:17:10;;;;;;;;;;;;;;;;;;6264671;28;20047;-81
2024/03/27 11:20:12;;;;;;;1.08;0.80;;;;;;;;;;6271232;28;19995;-80
2024/03/27 11:23:12;;;;;;;1.85;1.02;;;;;;;;;;6272365;28;20033;-79
2024/03/27 11:26:13;;;;;;;;;;;;;;;;;;6273737;28;20508;-79
2024/03/27 11:29:23;;;;;;;2.70;1.13;;;;;;;;;;6271863;28;19962;-80
2024/03/27 11:32:23;;;;;;;2.40;0.98;;;;;;;;;;6271933;28;20148;-80
2024/03/27 11:35:23;;;;;;;;;;;;;;;;;;6266770;28;20090;-80
2024/03/27 11:38:24;;;;;;;1.92;0.98;;;;;;;;;;6257305;28;20372;-82
2024/03/27 11:41:25;;;;;;;;;;;;;;;;;;6269182;28;20060;-82
2024/03/27 11:44:25;;;;;;;1.45;0.95;;;;;;;;;;6271530;28;19908;-79
2024/03/27 11:47:25;;;;;;;;;;;;;;;;;;6271849;28;20461;-82
2024/03/27 11:50:25;;;;;;;1.40;0.80;;;;;;;;;;6270558;28;19913;-80
2024/03/27 11:53:25;;;;;;;;;;;;;;;;;;6254357;28;20039;-82
2024/03/27 11:56:29;;;;;;;2.13;0.90;;;;;;;;;;6269933;28;19908;-82
2024/03/27 11:59:29;;;;;;;1.73;1.05;;;;;;;;;;6272883;28;20056;-81
2024/03/27 12:02:30;;;;;;;;;;;;;;;;;;6271892;28;20379;-81
2024/03/27 12:05:30;;;;;;;1.60;1.02;;;;;;;;;;6273832;28;19916;-77
2024/03/27 12:08:30;;;;;;;;;;;;;;;;;;6274944;28;20543;-79
2024/03/27 12:11:30;;;;;;;1.48;0.85;;;;;;;;;;6277249;28;20434;-83
2024/03/27 12:14:30;;;;;;;;;;;;;;;;;;6273844;28;20114;-82
2024/03/27 12:17:31;;;;;;;1.00;0.88;;;;;;;;;;6273469;28;20029;-82
2024/03/27 12:20:31;;;;;;;;;;;;;;;;;;6257352;28;20128;-83
2024/03/27 12:23:36;;;;;;;1.35;0.88;;;;;;;;;;6272198;28;19915;-81
2024/03/27 12:26:41;;;;;;;1.75;1.10;;;;;;;;;;6262298;28;20025;-81
2024/03/27 12:29:41;;;;;;;0.80;0.77;;;;;;;;;;6272303;28;20029;-83
2024/03/27 12:32:41;;;;;;;;;;;;;;;;;;6263165;28;20036;-83
2024/03/27 12:35:42;;;;;;;0.77;0.77;;;;;;;;;;6264329;28;19912;-83
2024/03/27 12:38:42;;;;;;;;;;;;;;;;;;6269195;28;20385;-83
2024/03/27 12:41:43;;;;;;;1.27;0.80;;;;;;;;;;6250583;28;19956;-82
2024/03/27 12:44:43;;;;;;;1.15;0.80;;;;;;;;;;6247671;28;20032;-82
2024/03/27 12:47:44;;;;;;;;;;;;;;;;;;6262175;28;20742;-83
2024/03/27 12:50:44;;;;;;;1.08;0.70;;;;;;;;;;6259020;28;19931;-82
2024/03/27 12:53:44;;;;;;;;;;;;;;;;;;6273912;28;20529;-82
2024/03/27 12:56:44;;;;;;;1.83;0.88;;;;;;;;;;6267375;28;19951;-82
2024/03/27 12:59:45;;;;;;;;;;;;;;;;;;6260989;28;20056;-82
2024/03/27 13:02:45;;;;;;;2.00;0.80;;;;;;;;;;6240713;28;19987;-82
2024/03/27 13:05:45;;;;;;;;;;;;;;;;;;6250032;28;20072;-82
2024/03/27 13:08:46;;;;;;;0.90;0.73;;;;;;;;;;6245596;28;19921;-83
2024/03/27 13:11:47;;;;;;;;;;;;;;;;;;6249313;28;20035;-83
2024/03/27 13:14:49;;;;;;;1.27;0.60;;;;;;;;;;6236163;28;20281;-82
2024/03/27 13:17:49;;;;;;;1.67;0.88;;;;;;;;;;6243006;28;20064;-82
2024/03/27 13:20:49;;;;;;;;;;;;;;;;;;6242639;28;20772;-82
2024/03/27 13:23:50;;;;;;;1.13;0.70;;;;;;;;;;6244510;28;19915;-83
2024/03/27 13:26:50;;;;;;;;;;;;;;;;;;6258781;28;20509;-81
2024/03/27 13:29:50;;;;;;;1.13;0.68;;;;;;;;;;6244726;28;19967;-81
2024/03/27 13:32:50;;;;;;;;;;;;;;;;;;6252744;28;20120;-81
2024/03/27 13:35:50;;;;;;;1.20;0.68;;;;;;;;;;6240536;28;19951;-81
2024/03/27 13:38:50;;;;;;;;;;;;;;;;;;6259153;28;20029;-82
2024/03/27 13:41:51;;;;;;;2.20;0.82;;;;;;;;;;6245849;28;19921;-81
2024/03/27 13:44:52;;;;;;;;;;;;;;;;;;6259730;28;20028;-81
2024/03/27 13:47:53;;;;;;;0.73;0.70;;;;;;;;;;6235773;28;19905;-81
2024/03/27 13:50:53;;;;;;;;;;;;;;;;;;6245801;28;20060;-81
2024/03/27 13:53:53;;;;;;;2.20;0.63;;;;;;;;;;6244187;28;19905;-81
2024/03/27 13:56:53;;;;;;;;;;;;;;;;;;6246925;28;20027;-81
2024/03/27 13:59:54;;;;;;;1.42;0.75;;;;;;;;;;6255341;28;19917;-81
2024/03/27 14:02:54;;;;;;;;;;;;;;;;;;6265191;28;20033;-81
2024/03/27 14:05:54;;;;;;;1.95;0.80;;;;;;;;;;6262192;28;19909;-79
2024/03/27 14:08:54;;;;;;;;;;;;;;;;;;6271180;28;20024;-78
2024/03/27 14:11:54;;;;;;;1.27;0.82;;;;;;;;;;6272729;28;19919;-80
2024/03/27 14:14:55;;;;;;;;;;;;;;;;;;6251097;28;20553;-80
2024/03/27 14:17:56;;;;;;;1.33;0.90;;;;;;;;;;6267257;28;20376;-80
2024/03/27 14:20:56;;;;;;;;;;;;;;;;;;6269886;28;20041;-81
2024/03/27 14:23:56;;;;;;;0.98;0.60;;;;;;;;;;6275700;28;19924;-80
2024/03/27 14:26:56;;;;;;;;;;;;;;;;;;6268357;28;20086;-80
2024/03/27 14:29:56;;;;;;;1.23;0.70;;;;;;;;;;6273021;28;19912;-80
2024/03/27 14:32:57;;;;;;;;;;;;;;;;;;6272054;28;20028;-80
2024/03/27 14:35:57;;;;;;;1.47;0.50;;;;;;;;;;6272988;28;19905;-82
2024/03/27 14:38:57;;;;;;;;;;;;;;;;;;6272472;28;20029;-83
2024/03/27 14:41:58;;;;;;;1.17;0.68;;;;;;;;;;6272642;28;19913;-83
2024/03/27 14:44:59;;;;;;;1.27;0.70;;;;;;;;;;6271649;28;20017;-82
2024/03/27 14:47:59;;;;;;;;;;;;;;;;;;6288514;28;20074;-83
2024/03/27 14:50:59;;;;;;;1.20;0.70;;;;;;;;;;6297563;28;19954;-82
2024/03/27 14:53:59;;;;;;;;;;;;;;;;;;6277341;28;20071;-83
2024/03/27 14:56:59;;;;;;;1.13;0.52;;;;;;;;;;6272722;28;19904;-82
2024/03/27 15:00:00;;;;;;;;;;;;;;;;;;6271791;28;20041;-83
2024/03/27 15:03:00;;;;;;;2.17;0.80;;;;;;;;;;6271606;28;19917;-83
2024/03/27 15:06:00;;;;;;;;;;;;;;;;;;6272598;28;20025;-83
2024/03/27 15:09:02;;;;;;;0.93;0.60;;;;;;;;;;6271543;28;19958;-83
2024/03/27 15:12:03;;;;;;;0.75;0.65;;;;;;;;;;6273142;28;20100;-83
2024/03/27 15:15:03;;;;;;;;;;;;;;;;;;6273000;28;20047;-82
2024/03/27 15:18:03;;;;;;;1.20;0.70;;;;;;;;;;6269925;28;20007;-83
2024/03/27 15:21:03;;;;;;;;;;;;;;;;;;6255156;28;20358;-83
2024/03/27 15:24:04;;;;;;;1.20;0.63;;;;;;;;;;6274725;28;19980;-83
2024/03/27 15:27:04;;;;;;;;;;;;;;;;;;6277444;28;20568;-83
2024/03/27 15:30:05;;;;;;;1.42;0.68;;;;;;;;;;6277080;28;19909;-83
2024/03/27 15:33:05;;;;;;;;;;;;;;;;;;6275478;28;20432;-83
2024/03/27 15:36:06;;;;;;;0.80;0.50;;;;;;;;;;6269194;28;20380;-83
2024/03/27 15:39:06;;;;;;;;;;;;;;;;;;6285013;28;20062;-83
2024/03/27 15:42:07;;;;;;;1.00;0.70;;;;;;;;;;6276591;28;20426;-82
2024/03/27 15:45:07;;;;;;;;;;;;;;;;;;6277247;28;20472;-82
2024/03/27 15:48:07;;;;;;;1.45;0.60;;;;;;;;;;6275248;28;19999;-83
2024/03/27 15:51:07;;;;;;;;;;;;;;;;;;6275485;28;20100;-82
2024/03/27 15:54:07;;;;;;;2.78;0.50;;;;;;;;;;6276790;28;19952;-83
2024/03/27 15:57:09;;;;;;;;;;;;;;;;;;6298993;28;20059;-83
2024/03/27 16:00:10;;;;;;;1.80;0.73;;;;;;;;;;6226794;28;19917;-83
2024/03/27 16:03:11;;;;;;;1.20;0.70;;;;;;;;;;6225515;28;20621;-83
2024/03/27 16:06:11;;;;;;;;;;;;;;;;;;6261257;28;20040;-82
2024/03/27 16:09:11;;;;;;;1.55;0.60;;;;;;;;;;6249641;28;19909;-83
2024/03/27 16:12:11;;;;;;;;;;;;;;;;;;6243704;28;20041;-83
2024/03/27 16:15:14;;;;;;;0.60;0.50;;;;;;;;;;6251483;28;20350;-83
2024/03/27 16:18:14;;;;;;;0.90;0.55;;;;;;;;;;6250004;28;20018;-83
2024/03/27 16:21:14;;;;;;;1.63;0.80;;;;;;;;;;6243925;28;20036;-82
2024/03/27 16:24:15;;;;;;;;;;;;;;;;;;6236580;28;20029;-83
2024/03/27 16:27:15;;;;;;;1.85;0.80;;;;;;;;;;5902717;28;10000096;-83
2024/03/27 16:30:16;;;;;;;;;;;;;;;;;;6252347;28;20043;-82
2024/03/27 16:33:16;;;;;;;1.85;0.57;;;;;;;;;;6248224;28;19992;-83
2024/03/27 16:36:16;;;;;;;0.73;0.53;;;;;;;;;;6249243;28;20378;-83
2024/03/27 16:39:16;;;;;;;;;;;;;;;;;;6250080;28;20447;-83
2024/03/27 16:42:16;;;;;;;0.70;0.63;;;;;;;;;;6249039;28;19913;-83
2024/03/27 16:45:17;;;;;;;;;;;;;;;;;;6252642;28;20445;-83
2024/03/27 16:48:17;;;;;;;0.80;0.52;;;;;;;;;;6272698;28;19966;-82
2024/03/27 16:51:17;;;;;;;1.80;0.53;;;;;;;;;;6273901;28;20544;-83
2024/03/27 16:54:18;;;;;;;;;;;;;;;;;;6263186;28;20510;-83
2024/03/27 16:57:18;;;;;;;0.90;0.70;;;;;;;;;;6250125;28;19909;-80
2024/03/27 17:00:18;;;;;;;1.83;0.70;;;;;;;;;;6267273;28;20048;-79
2024/03/27 17:03:18;;;;;;;;;;;;;;;;;;6274242;28;20029;-80
2024/03/27 17:06:18;;;;;;;1.38;0.60;;;;;;;;;;6271464;28;19909;-80
2024/03/27 17:09:19;;;;;;;1.67;0.80;;;;;;;;;;6272657;28;20075;-79
2024/03/27 17:12:19;;;;;;;;;;;;;;;;;;6273505;28;20032;-80
2024/03/27 17:15:19;;;;;;;0.98;0.60;;;;;;;;;;6274393;28;19904;-79
2024/03/27 17:18:19;;;;;;;1.33;0.70;;;;;;;;;;6272949;28;20025;-79
2024/03/27 17:21:20;;;;;;;;;;;;;;;;;;6288034;28;20108;-78
2024/03/27 17:24:20;;;;;;;0.75;0.65;;;;;;;;;;6271254;28;19944;-80
2024/03/27 17:27:20;;;;;;;0.97;0.83;;;;;;;;;;6273342;28;20177;-80
2024/03/27 17:30:20;;;;;;;;;;;;;;;;;;6275175;28;20050;-79
2024/03/27 17:33:20;;;;;;;0.75;0.60;;;;;;;;;;6272572;28;19927;-78
2024/03/27 17:36:21;;;;;;;1.27;0.83;;;;;;;;;;6274459;28;20462;-79
2024/03/27 17:39:21;;;;;;;;;;;;;;;;;;6273656;28;20146;-79
2024/03/27 17:42:21;;;;;;;1.25;0.80;;;;;;;;;;6271975;28;20011;-79
2024/03/27 17:45:22;;;;;;;0.83;0.63;;;;;;;;;;6273628;28;20063;-79
2024/03/27 17:48:22;;;;;;;0.88;0.70;;;;;;;;;;6271042;28;20777;-79
2024/03/27 17:51:22;;;;;;;;;;;;;;;;;;6270194;28;20136;-81
2024/03/27 17:54:22;;;;;;;1.05;0.82;;;;;;;;;;6284169;28;19904;-81
2024/03/27 17:57:23;;;;;;;0.93;0.70;;;;;;;;;;6298234;28;20514;-79
2024/03/27 18:00:23;;;;;;;;;;;;;;;;;;6273272;28;20469;-79
2024/03/27 18:03:23;;;;;;;2.80;0.75;;;;;;;;;;6271926;28;19916;-79
2024/03/27 18:06:26;;;;;;;1.50;0.70;;;;;;;;;;6272205;28;20370;-82
2024/03/27 18:09:27;;;;;;;0.47;0.47;;;;;;;;;;6271163;28;20074;-79
2024/03/27 18:12:27;;;;;;;0.97;0.70;;;;;;;;;;6273183;28;20054;-75
2024/03/27 18:15:27;;;;;;;0.90;0.67;;;;;;;;;;6255674;28;20255;-75
2024/03/27 18:18:27;;;;;;;0.87;0.60;;;;;;;;;;6271186;28;20348;-75
2024/03/27 18:21:28;;;;;;;2.37;0.60;;;;;;;;;;6272325;28;20120;-74
2024/03/27 18:24:28;;;;;;;;;;;;;;;;;;6271149;28;20063;-75
2024/03/27 18:27:28;;;;;;;1.42;0.60;;;;;;;;;;6272185;28;19944;-74